Bates, Arkansas
Current Conditions -  °F | °C
As of 12:15 PM on Sunday 25 Jan 2015 (Local Time) from KRKR Reporting Station
Overcast Overcast  
Wind Chill: 55°   Ceiling: 5000
Heat Index: 55°   Visibility: 10mi
Dew Point: 32°   Wind: 21mph
Humidity: 42%   Direction: 290°WNW
Pressure: 29.88"   Gusts: 29mph
Location:  34.91°N, 94.39°W
Report Text: KRKR 251815Z AUTO 29018G25KT 250V330 10SM OVC050 13/00 A2988 RMK AO2 T01251002
Loading
Personal Weather Stations






























Interactive Weather Map New forecast layout! Learn more

10-Day Weather Forecast

Advertisements
Track Severe Weather on mobile